Time;durP1;ratioP1;P1;durP2;ratioP2;P2;SDS_P1;SDS_P2;PMS_P1;PMS_P2;Temp;Humidity;BMP_temperature;BMP_pressure;BME280_temperature;BME280_humidity;BME280_pressure;Samples;Min_cycle;Max_cycle;Signal;HPM_P1;HPM_P2
2023/04/17 00:01:48;;;;;;;1.40;0.88;;;8.60;99.90;;;;;;4400990;32;20105;-75
2023/04/17 00:04:14;;;;;;;0.57;0.50;;;8.60;99.90;;;;;;4401198;32;20132;-75
2023/04/17 00:06:43;;;;;;;0.52;0.52;;;8.60;99.90;;;;;;4405066;32;20101;-75
2023/04/17 00:09:09;;;;;;;0.40;0.40;;;8.60;99.90;;;;;;4402647;32;20517;-76
2023/04/17 00:11:35;;;;;;;0.70;0.70;;;8.60;99.90;;;;;;4400951;32;20070;-75
2023/04/17 00:14:00;;;;;;;0.47;0.47;;;8.70;99.90;;;;;;4403187;32;20089;-75
2023/04/17 00:16:26;;;;;;;3.10;0.80;;;8.70;99.90;;;;;;4403547;32;20533;-75
2023/04/17 00:18:52;;;;;;;0.40;0.40;;;8.70;99.90;;;;;;4402699;32;20086;-75
2023/04/17 00:21:18;;;;;;;0.40;0.40;;;8.70;99.90;;;;;;4400845;32;20141;-76
2023/04/17 00:23:44;;;;;;;0.70;0.70;;;8.70;99.90;;;;;;4399507;32;20097;-76
2023/04/17 00:26:10;;;;;;;0.47;0.47;;;8.70;99.90;;;;;;4403573;32;20163;-76
2023/04/17 00:28:36;;;;;;;0.68;0.68;;;8.70;99.90;;;;;;4398456;32;20680;-75
2023/04/17 00:31:01;;;;;;;0.85;0.82;;;8.70;99.90;;;;;;4400431;32;20083;-75
2023/04/17 00:33:27;;;;;;;0.40;0.40;;;8.60;99.90;;;;;;4400332;32;20426;-75
2023/04/17 00:35:52;;;;;;;4.05;1.02;;;8.60;99.90;;;;;;4400579;32;20403;-76
2023/04/17 00:38:18;;;;;;;2.80;1.00;;;8.50;99.90;;;;;;4401222;32;20073;-76
2023/04/17 00:40:45;;;;;;;0.60;0.60;;;8.50;99.90;;;;;;4400424;32;20066;-75
2023/04/17 00:43:10;;;;;;;0.65;0.65;;;8.50;99.90;;;;;;4399048;32;20327;-75
2023/04/17 00:45:36;;;;;;;0.75;0.70;;;8.50;99.90;;;;;;4401930;32;20118;-76
2023/04/17 00:48:03;;;;;;;2.85;0.62;;;8.50;99.90;;;;;;4401299;32;20514;-76
2023/04/17 00:50:29;;;;;;;0.98;0.65;;;8.60;99.90;;;;;;4402383;32;20057;-76
2023/04/17 00:52:55;;;;;;;0.40;0.40;;;8.60;99.90;;;;;;4399840;32;20514;-76
2023/04/17 00:55:20;;;;;;;0.30;0.30;;;8.50;99.90;;;;;;4401257;32;20121;-76
2023/04/17 00:57:48;;;;;;;0.70;0.70;;;8.60;99.90;;;;;;4400520;32;20082;-75
2023/04/17 01:00:15;;;;;;;0.40;0.40;;;8.50;99.90;;;;;;4399618;32;20069;-75
2023/04/17 01:02:41;;;;;;;1.25;1.00;;;8.40;99.90;;;;;;4400321;32;20514;-75
2023/04/17 01:05:07;;;;;;;0.60;0.60;;;8.40;99.90;;;;;;4399553;32;20082;-75
2023/04/17 01:07:32;;;;;;;0.43;0.43;;;8.40;99.90;;;;;;4402924;32;20431;-74
2023/04/17 01:09:58;;;;;;;0.47;0.47;;;8.40;99.90;;;;;;4401807;32;20098;-75
2023/04/17 01:12:24;;;;;;;0.57;0.57;;;8.30;99.90;;;;;;4401088;32;20103;-77
2023/04/17 01:14:52;;;;;;;1.20;0.95;;;8.20;99.90;;;;;;4401542;32;20106;-76
2023/04/17 01:17:18;;;;;;;0.85;0.85;;;8.30;99.90;;;;;;4398084;32;20089;-76
2023/04/17 01:19:44;;;;;;;2.30;1.05;;;8.30;99.90;;;;;;4399511;32;20074;-77
2023/04/17 01:22:10;;;;;;;0.70;0.70;;;8.40;99.90;;;;;;4400131;32;20109;-77
2023/04/17 01:24:36;;;;;;;1.73;0.88;;;8.40;99.90;;;;;;4403355;32;20057;-77
2023/04/17 01:27:02;;;;;;;1.80;0.70;;;8.40;99.90;;;;;;4400715;32;20101;-77
2023/04/17 01:29:28;;;;;;;0.77;0.77;;;8.40;99.90;;;;;;4402133;32;20090;-77
2023/04/17 01:31:54;;;;;;;1.42;1.02;;;8.40;99.90;;;;;;4402672;32;20417;-78
2023/04/17 01:34:19;;;;;;;0.30;0.30;;;8.40;99.90;;;;;;4398848;32;20797;-77
2023/04/17 01:36:45;;;;;;;0.57;0.57;;;8.40;99.90;;;;;;4402709;32;20089;-77
2023/04/17 01:39:10;;;;;;;0.65;0.65;;;8.30;99.90;;;;;;4400761;32;20828;-76
2023/04/17 01:41:36;;;;;;;0.88;0.52;;;8.40;99.90;;;;;;4401978;32;20130;-77
2023/04/17 01:44:01;;;;;;;1.60;1.20;;;8.40;99.90;;;;;;4402023;32;20204;-77
2023/04/17 01:46:27;;;;;;;1.20;0.60;;;8.40;99.90;;;;;;4401169;32;20149;-77
2023/04/17 01:48:53;;;;;;;0.80;0.80;;;8.40;99.90;;;;;;4401146;32;20091;-77
2023/04/17 01:51:18;;;;;;;0.55;0.55;;;8.30;99.90;;;;;;4402006;32;20105;-76
2023/04/17 01:53:44;;;;;;;0.30;0.30;;;8.20;99.90;;;;;;4398520;32;20074;-75
2023/04/17 01:56:10;;;;;;;1.05;0.70;;;8.20;99.90;;;;;;4402455;32;20073;-76
2023/04/17 01:58:35;;;;;;;1.12;0.77;;;8.20;99.90;;;;;;4397301;32;20081;-77
2023/04/17 02:01:01;;;;;;;1.50;1.12;;;8.20;99.90;;;;;;4402158;32;20494;-77
2023/04/17 02:03:26;;;;;;;2.35;1.45;;;8.10;99.90;;;;;;4403366;32;20510;-77
2023/04/17 02:05:52;;;;;;;0.75;0.75;;;8.10;99.90;;;;;;4405669;32;20085;-77
2023/04/17 02:08:18;;;;;;;3.20;1.10;;;8.10;99.90;;;;;;4403478;32;20061;-77
2023/04/17 02:10:44;;;;;;;1.35;0.77;;;8.20;99.90;;;;;;4403870;32;20098;-77
2023/04/17 02:13:10;;;;;;;0.82;0.82;;;8.20;99.90;;;;;;4405162;32;20066;-76
2023/04/17 02:15:36;;;;;;;1.33;0.70;;;8.20;99.90;;;;;;4400986;32;20506;-77
2023/04/17 02:18:04;;;;;;;0.88;0.88;;;8.10;99.90;;;;;;4402639;32;20081;-77
2023/04/17 02:20:30;;;;;;;0.95;0.60;;;8.00;99.90;;;;;;4404905;32;20087;-77
2023/04/17 02:22:56;;;;;;;1.15;0.80;;;8.00;99.90;;;;;;4405200;32;20097;-77
2023/04/17 02:25:22;;;;;;;1.37;1.00;;;8.00;99.90;;;;;;4401771;32;20144;-77
2023/04/17 02:27:47;;;;;;;2.97;1.33;;;7.90;99.90;;;;;;4402538;32;20074;-77
2023/04/17 02:30:13;;;;;;;10.05;1.15;;;7.90;99.90;;;;;;4403892;32;20125;-77
2023/04/17 02:32:38;;;;;;;0.60;0.60;;;7.90;99.90;;;;;;4403264;32;20074;-77
2023/04/17 02:35:05;;;;;;;2.60;0.60;;;7.80;99.90;;;;;;4402288;32;20150;-77
2023/04/17 02:37:30;;;;;;;0.70;0.70;;;7.70;99.90;;;;;;4404945;32;20078;-77
2023/04/17 02:39:56;;;;;;;1.17;0.50;;;7.70;99.90;;;;;;4404646;32;20117;-77
2023/04/17 02:42:21;;;;;;;4.95;0.50;;;7.70;99.90;;;;;;4403714;32;20537;-77
2023/04/17 02:44:46;;;;;;;1.00;0.60;;;7.70;99.90;;;;;;4401734;32;20109;-77
2023/04/17 02:47:12;;;;;;;0.50;0.50;;;7.50;99.90;;;;;;4404789;32;20611;-76
2023/04/17 02:49:37;;;;;;;0.70;0.62;;;7.60;99.90;;;;;;4403401;32;20086;-77
2023/04/17 02:52:03;;;;;;;9.02;0.70;;;7.60;99.90;;;;;;4401093;32;20098;-77
2023/04/17 02:54:29;;;;;;;0.75;0.65;;;7.60;99.90;;;;;;4402365;32;20124;-77
2023/04/17 02:56:57;;;;;;;8.13;1.15;;;7.50;99.90;;;;;;4401081;32;20089;-77
2023/04/17 02:59:24;;;;;;;0.68;0.68;;;7.40;99.90;;;;;;4400735;32;20696;-77
2023/04/17 03:01:49;;;;;;;0.90;0.88;;;7.30;99.90;;;;;;4404726;32;20102;-77
2023/04/17 03:04:15;;;;;;;0.50;0.50;;;7.30;99.90;;;;;;4401310;32;20074;-77
2023/04/17 03:06:41;;;;;;;0.68;0.60;;;7.30;99.90;;;;;;4403471;32;20137;-77
2023/04/17 03:09:06;;;;;;;0.50;0.50;;;7.40;99.90;;;;;;4404432;32;20109;-77
2023/04/17 03:11:31;;;;;;;0.40;0.40;;;7.30;99.90;;;;;;4402011;32;20832;-78
2023/04/17 03:13:57;;;;;;;1.02;0.95;;;7.20;99.90;;;;;;4401272;32;20122;-76
2023/04/17 03:16:23;;;;;;;1.20;0.60;;;7.30;99.90;;;;;;4404361;32;20123;-76
2023/04/17 03:18:48;;;;;;;1.95;0.85;;;7.30;99.90;;;;;;4402685;32;20082;-77
2023/04/17 03:21:13;;;;;;;0.80;0.77;;;7.30;99.90;;;;;;4403195;32;20146;-77
2023/04/17 03:23:40;;;;;;;0.50;0.50;;;7.30;99.90;;;;;;4405092;32;20098;-77
2023/04/17 03:26:06;;;;;;;0.70;0.70;;;7.30;99.90;;;;;;4404543;32;20423;-77
2023/04/17 03:28:31;;;;;;;0.93;0.82;;;7.40;99.90;;;;;;4404422;32;20200;-77
2023/04/17 03:30:58;;;;;;;0.50;0.50;;;7.40;99.90;;;;;;4402712;32;20564;-77
2023/04/17 03:33:24;;;;;;;7.65;1.52;;;7.40;99.90;;;;;;4401688;32;20081;-76
2023/04/17 03:35:50;;;;;;;2.22;1.10;;;7.40;99.90;;;;;;4400680;32;20070;-77
2023/04/17 03:38:16;;;;;;;0.82;0.57;;;7.40;99.90;;;;;;4400353;32;20126;-76
2023/04/17 03:40:41;;;;;;;1.92;0.90;;;7.40;99.90;;;;;;4397868;32;20057;-77
2023/04/17 03:43:07;;;;;;;4.57;1.50;;;7.40;99.90;;;;;;4400267;32;20106;-78
2023/04/17 03:45:33;;;;;;;0.68;0.68;;;7.40;99.90;;;;;;4399346;32;20081;-77
2023/04/17 03:47:58;;;;;;;4.15;0.68;;;7.30;99.90;;;;;;4402978;32;20160;-77
2023/04/17 03:50:24;;;;;;;0.77;0.68;;;7.30;99.90;;;;;;4403716;32;20599;-77
2023/04/17 03:52:49;;;;;;;1.55;1.40;;;7.20;99.90;;;;;;4405032;32;20078;-77
2023/04/17 03:55:15;;;;;;;1.37;1.05;;;7.20;99.90;;;;;;4399283;32;20163;-77
2023/04/17 03:57:41;;;;;;;0.80;0.80;;;7.20;99.90;;;;;;4402811;32;20477;-77
2023/04/17 04:00:09;;;;;;;2.50;0.75;;;7.20;99.90;;;;;;4400646;32;20069;-77
2023/04/17 04:02:35;;;;;;;0.88;0.88;;;7.30;99.90;;;;;;4403804;32;20192;-77
2023/04/17 04:05:00;;;;;;;0.50;0.50;;;7.30;99.90;;;;;;4399401;32;20577;-77
2023/04/17 04:07:26;;;;;;;2.03;0.85;;;7.20;99.90;;;;;;4402213;32;20586;-77
2023/04/17 04:09:51;;;;;;;1.42;1.10;;;7.10;99.90;;;;;;4401710;32;20106;-77
2023/04/17 04:12:17;;;;;;;0.45;0.45;;;7.10;99.90;;;;;;4402637;32;20533;-77
2023/04/17 04:14:42;;;;;;;1.87;1.30;;;7.00;99.90;;;;;;4403186;32;20140;-77
2023/04/17 04:17:08;;;;;;;0.80;0.70;;;7.10;99.90;;;;;;4401467;32;20090;-77
2023/04/17 04:19:34;;;;;;;0.40;0.40;;;7.10;99.90;;;;;;4404054;32;20066;-77
2023/04/17 04:22:00;;;;;;;0.73;0.73;;;7.20;99.90;;;;;;4397794;32;20074;-77
2023/04/17 04:24:25;;;;;;;1.98;1.27;;;7.10;99.90;;;;;;4400269;32;20535;-76
2023/04/17 04:26:51;;;;;;;0.40;0.40;;;7.10;99.90;;;;;;4400221;32;20078;-77
2023/04/17 04:29:18;;;;;;;19.25;1.87;;;7.10;99.90;;;;;;4401447;32;20066;-76
2023/04/17 04:31:45;;;;;;;1.05;0.73;;;7.00;99.90;;;;;;4402863;32;20170;-75
2023/04/17 04:34:12;;;;;;;1.37;1.27;;;7.10;99.90;;;;;;4403108;32;20402;-76
2023/04/17 04:36:40;;;;;;;1.98;1.27;;;7.10;99.90;;;;;;4401335;32;20137;-76
2023/04/17 04:39:06;;;;;;;2.50;0.50;;;7.20;99.90;;;;;;4403171;32;20124;-76
2023/04/17 04:41:33;;;;;;;1.00;0.60;;;7.20;99.90;;;;;;4400487;32;20128;-76
2023/04/17 04:44:00;;;;;;;5.72;3.17;;;7.30;99.90;;;;;;4399789;32;20122;-76
2023/04/17 04:46:26;;;;;;;0.70;0.70;;;7.40;99.90;;;;;;4403632;32;20123;-76
2023/04/17 04:48:51;;;;;;;1.95;0.62;;;7.40;99.90;;;;;;4402278;32;20113;-76
2023/04/17 04:51:18;;;;;;;5.03;1.05;;;7.40;99.90;;;;;;4401756;32;20489;-76
2023/04/17 04:53:44;;;;;;;0.90;0.82;;;7.30;99.90;;;;;;4401149;32;20077;-77
2023/04/17 04:56:10;;;;;;;0.52;0.52;;;7.30;99.90;;;;;;4401300;32;20148;-76
2023/04/17 04:58:37;;;;;;;0.93;0.90;;;7.30;99.90;;;;;;4401347;32;20074;-76
2023/04/17 05:01:03;;;;;;;1.48;0.98;;;7.40;99.90;;;;;;4399505;32;20081;-76
2023/04/17 05:03:30;;;;;;;3.10;0.88;;;7.30;99.90;;;;;;4400684;32;20473;-76
2023/04/17 05:05:55;;;;;;;2.10;1.40;;;7.40;99.90;;;;;;4400872;32;20082;-77
2023/04/17 05:08:21;;;;;;;1.45;0.98;;;7.40;99.90;;;;;;4401512;32;20510;-77
2023/04/17 05:10:46;;;;;;;0.70;0.70;;;7.30;99.90;;;;;;4402432;32;20443;-75
2023/04/17 05:13:12;;;;;;;1.23;0.80;;;7.30;99.90;;;;;;4402137;32;20411;-77
2023/04/17 05:15:38;;;;;;;1.85;1.02;;;7.30;99.90;;;;;;4400534;32;20455;-77
2023/04/17 05:18:03;;;;;;;2.15;0.95;;;7.30;99.90;;;;;;4388479;32;20069;-76
2023/04/17 05:20:29;;;;;;;0.62;0.62;;;7.30;99.90;;;;;;4401270;32;20096;-75
2023/04/17 05:22:55;;;;;;;2.05;1.02;;;7.30;99.90;;;;;;4402729;32;20140;-76
2023/04/17 05:25:21;;;;;;;3.47;1.35;;;7.30;99.90;;;;;;4399841;32;20106;-76
2023/04/17 05:27:47;;;;;;;5.97;1.50;;;7.30;99.90;;;;;;4393746;32;20507;-76
2023/04/17 05:30:13;;;;;;;0.98;0.75;;;7.40;99.90;;;;;;4391148;32;20061;-74
2023/04/17 05:32:39;;;;;;;7.80;2.50;;;7.30;99.90;;;;;;4386293;32;20117;-75
2023/04/17 05:35:05;;;;;;;3.65;1.20;;;7.40;99.90;;;;;;4402747;32;20078;-76
2023/04/17 05:37:31;;;;;;;2.83;1.62;;;7.40;99.90;;;;;;4400522;32;20077;-76
2023/04/17 05:39:59;;;;;;;0.80;0.80;;;7.50;99.90;;;;;;4406315;32;20096;-76
2023/04/17 05:42:25;;;;;;;1.10;0.98;;;7.50;99.90;;;;;;4402618;32;20620;-77
2023/04/17 05:44:51;;;;;;;1.20;1.10;;;7.50;99.90;;;;;;4401102;32;20073;-77
2023/04/17 05:47:18;;;;;;;1.15;0.47;;;7.50;99.90;;;;;;4401347;32;20122;-76
2023/04/17 05:49:43;;;;;;;3.25;1.48;;;7.60;99.90;;;;;;4402381;32;20435;-76
2023/04/17 05:52:09;;;;;;;2.08;0.90;;;7.60;99.90;;;;;;4400914;32;20193;-76
2023/04/17 05:54:35;;;;;;;0.50;0.50;;;7.60;99.90;;;;;;4393704;32;20545;-75
2023/04/17 05:57:01;;;;;;;0.93;0.93;;;7.60;99.90;;;;;;4392532;32;20152;-75
2023/04/17 05:59:26;;;;;;;0.90;0.90;;;7.70;99.90;;;;;;4388705;32;20813;-75
2023/04/17 06:01:52;;;;;;;1.02;0.88;;;7.60;99.90;;;;;;4378981;32;20101;-75
2023/04/17 06:04:17;;;;;;;1.30;0.98;;;7.70;99.90;;;;;;4386846;32;20111;-75
2023/04/17 06:06:43;;;;;;;0.82;0.80;;;7.70;99.90;;;;;;4382987;32;20878;-75
2023/04/17 06:09:09;;;;;;;3.60;1.70;;;7.70;99.90;;;;;;4390663;32;20085;-76
2023/04/17 06:11:35;;;;;;;2.17;1.17;;;7.70;99.90;;;;;;4389447;32;20116;-76
2023/04/17 06:14:01;;;;;;;3.30;1.27;;;7.60;99.90;;;;;;4386560;32;20682;-75
2023/04/17 06:16:27;;;;;;;7.05;0.88;;;7.60;99.90;;;;;;4392885;32;20109;-75
2023/04/17 06:18:52;;;;;;;1.90;1.27;;;7.70;99.90;;;;;;4396282;32;20185;-76
2023/04/17 06:21:18;;;;;;;1.25;0.95;;;7.80;99.90;;;;;;4389649;32;20597;-76
2023/04/17 06:23:44;;;;;;;4.20;1.00;;;7.90;99.90;;;;;;4389462;32;20150;-76
2023/04/17 06:26:11;;;;;;;0.70;0.70;;;8.00;99.90;;;;;;4385756;32;20148;-75
2023/04/17 06:28:36;;;;;;;1.75;1.35;;;8.00;99.90;;;;;;4391603;32;20786;-76
2023/04/17 06:31:02;;;;;;;1.02;1.00;;;7.90;99.90;;;;;;4386448;32;20090;-75
2023/04/17 06:33:27;;;;;;;1.20;1.10;;;7.90;99.90;;;;;;4386289;32;20106;-75
2023/04/17 06:35:53;;;;;;;0.82;0.80;;;8.00;99.90;;;;;;4386524;32;20093;-76
2023/04/17 06:38:18;;;;;;;1.08;1.08;;;8.00;99.90;;;;;;4387833;32;20090;-76
2023/04/17 06:40:45;;;;;;;0.70;0.70;;;7.90;99.90;;;;;;4385039;32;20213;-75
2023/04/17 06:43:10;;;;;;;0.45;0.45;;;8.00;99.90;;;;;;4379180;32;20148;-76
2023/04/17 06:45:36;;;;;;;2.03;1.10;;;8.10;99.90;;;;;;4389413;32;21910;-76
2023/04/17 06:48:01;;;;;;;1.15;0.85;;;8.10;99.90;;;;;;4386438;32;20122;-76
2023/04/17 06:50:28;;;;;;;1.15;0.95;;;8.10;99.90;;;;;;4381510;32;20105;-76
2023/04/17 06:52:53;;;;;;;1.70;1.10;;;8.00;99.90;;;;;;4380998;32;20220;-76
2023/04/17 06:55:19;;;;;;;4.30;1.58;;;8.10;99.90;;;;;;4381551;32;20097;-75
2023/04/17 06:57:45;;;;;;;1.17;1.00;;;8.10;99.90;;;;;;4386598;32;20098;-76
2023/04/17 07:00:11;;;;;;;1.10;1.08;;;8.20;99.90;;;;;;4387003;32;21307;-75
2023/04/17 07:02:36;;;;;;;1.77;1.12;;;8.20;99.90;;;;;;4382364;32;20101;-76
2023/04/17 07:05:05;;;;;;;1.52;1.02;;;8.20;99.90;;;;;;4403112;32;20106;-76
2023/04/17 07:07:33;;;;;;;3.10;0.82;;;8.30;99.90;;;;;;4385180;32;20097;-76
2023/04/17 07:09:58;;;;;;;1.27;1.05;;;8.30;99.90;;;;;;4391438;32;20470;-76
2023/04/17 07:12:25;;;;;;;5.72;1.48;;;8.40;99.90;;;;;;4384295;32;20097;-76
2023/04/17 07:14:50;;;;;;;5.25;1.40;;;8.50;99.90;;;;;;4393976;32;21011;-76
2023/04/17 07:17:16;;;;;;;3.47;1.25;;;8.60;99.90;;;;;;4396257;32;20411;-75
2023/04/17 07:19:42;;;;;;;2.25;1.40;;;8.60;99.90;;;;;;4391006;32;20235;-76
2023/04/17 07:22:08;;;;;;;24.48;1.05;;;8.50;99.90;;;;;;4388709;32;20525;-76
2023/04/17 07:24:34;;;;;;;4.22;1.10;;;8.50;99.90;;;;;;4396310;32;20090;-76
2023/04/17 07:27:01;;;;;;;0.90;0.90;;;8.60;99.90;;;;;;4385804;32;20114;-76
2023/04/17 07:29:27;;;;;;;1.35;1.02;;;8.60;99.90;;;;;;4375610;32;20123;-77
2023/04/17 07:31:53;;;;;;;4.80;1.85;;;8.50;99.90;;;;;;4378490;32;20141;-76
2023/04/17 07:34:19;;;;;;;8.38;1.45;;;8.60;99.90;;;;;;4385746;32;20113;-76
2023/04/17 07:36:46;;;;;;;1.42;1.10;;;8.50;99.90;;;;;;4391380;32;20082;-75
2023/04/17 07:39:12;;;;;;;0.55;0.52;;;8.50;99.90;;;;;;4396340;32;20058;-77
2023/04/17 07:41:39;;;;;;;1.92;1.15;;;8.40;99.90;;;;;;4400858;32;20126;-76
2023/04/17 07:44:05;;;;;;;1.65;0.93;;;8.30;99.90;;;;;;4400650;32;20146;-76
2023/04/17 07:46:31;;;;;;;3.35;1.35;;;8.40;99.90;;;;;;4400013;32;20383;-76
2023/04/17 07:48:57;;;;;;;4.30;1.83;;;8.30;99.90;;;;;;4408109;32;20089;-77
2023/04/17 07:51:23;;;;;;;1.50;1.05;;;8.40;99.90;;;;;;4388463;32;20573;-80
2023/04/17 07:53:49;;;;;;;17.98;3.37;;;8.50;99.90;;;;;;4385756;32;20105;-78
2023/04/17 07:56:16;;;;;;;1.20;1.10;;;8.60;99.90;;;;;;4394497;32;20089;-78
2023/04/17 07:58:43;;;;;;;1.08;1.02;;;8.60;99.90;;;;;;4394129;32;20117;-78
2023/04/17 08:01:10;;;;;;;3.05;0.82;;;8.50;99.90;;;;;;4393974;32;20134;-79
2023/04/17 08:03:40;;;;;;;1.45;1.12;;;8.40;99.90;;;;;;4400252;32;20099;-78
2023/04/17 08:06:06;;;;;;;0.85;0.85;;;8.40;99.90;;;;;;4395329;32;20172;-74
2023/04/17 08:08:32;;;;;;;1.37;1.27;;;8.40;99.90;;;;;;4395488;32;20176;-76
2023/04/17 08:10:57;;;;;;;1.92;1.35;;;8.40;99.90;;;;;;4377983;32;20650;-75
2023/04/17 08:13:25;;;;;;;0.60;0.60;;;8.40;99.90;;;;;;4382914;32;20098;-77
2023/04/17 08:15:53;;;;;;;0.50;0.50;;;8.40;99.90;;;;;;4383526;32;20086;-76
2023/04/17 08:18:20;;;;;;;0.70;0.70;;;8.40;99.90;;;;;;4381676;32;20129;-74
2023/04/17 08:20:54;;;;;;;1.10;0.93;;;8.40;99.90;;;;;;4384067;32;20074;-75
2023/04/17 08:23:20;;;;;;;6.60;1.67;;;8.40;99.90;;;;;;4380218;32;20276;-75
2023/04/17 08:25:47;;;;;;;2.60;1.20;;;8.40;99.90;;;;;;4377743;32;21388;-76
2023/04/17 08:28:12;;;;;;;0.60;0.60;;;8.50;99.90;;;;;;4374004;32;20166;-74
2023/04/17 08:30:38;;;;;;;1.15;1.08;;;8.70;99.90;;;;;;4374236;32;20090;-75
2023/04/17 08:33:03;;;;;;;3.50;1.73;;;8.80;99.90;;;;;;4378624;32;20095;-74
2023/04/17 08:35:29;;;;;;;0.77;0.70;;;8.80;99.90;;;;;;4376845;32;20566;-76
2023/04/17 08:37:57;;;;;;;0.98;0.70;;;8.80;99.90;;;;;;4377679;32;20216;-75
2023/04/17 08:40:25;;;;;;;2.33;1.35;;;8.80;99.90;;;;;;4379123;32;20089;-75
2023/04/17 08:42:51;;;;;;;0.62;0.62;;;8.80;99.90;;;;;;4368990;32;20267;-76
2023/04/17 08:45:18;;;;;;;11.52;1.10;;;8.90;99.90;;;;;;4369296;32;20142;-75
2023/04/17 08:47:44;;;;;;;1.00;0.80;;;9.00;99.90;;;;;;4368079;32;20262;-75
2023/04/17 08:50:12;;;;;;;0.93;0.88;;;9.20;99.90;;;;;;4366454;32;20106;-76
2023/04/17 08:52:41;;;;;;;0.80;0.80;;;9.30;99.90;;;;;;4369991;32;20527;-74
2023/04/17 08:55:08;;;;;;;1.48;0.98;;;9.40;99.90;;;;;;4367751;32;20093;-75
2023/04/17 08:57:33;;;;;;;0.70;0.52;;;9.40;99.90;;;;;;4372805;32;20098;-75
2023/04/17 09:00:03;;;;;;;1.67;1.10;;;9.40;99.90;;;;;;4364153;32;20122;-75
2023/04/17 09:02:30;;;;;;;1.35;0.70;;;9.40;99.90;;;;;;4365793;32;20770;-75
2023/04/17 09:04:55;;;;;;;0.50;0.50;;;9.40;99.90;;;;;;4366940;32;20086;-76
2023/04/17 09:07:29;;;;;;;2.47;0.88;;;9.30;99.90;;;;;;4359881;32;20161;-75
2023/04/17 09:09:56;;;;;;;2.15;1.10;;;9.30;99.90;;;;;;4370490;32;20655;-76
2023/04/17 09:12:24;;;;;;;0.60;0.60;;;9.50;99.90;;;;;;4365422;32;20100;-76
2023/04/17 09:14:50;;;;;;;2.92;1.75;;;9.60;99.90;;;;;;4373639;32;20202;-77
2023/04/17 09:17:17;;;;;;;2.42;1.08;;;9.50;99.90;;;;;;4377889;32;20377;-75
2023/04/17 09:20:06;;;;;;;0.55;0.55;;;9.50;99.90;;;;;;4391494;32;20790;-76
2023/04/17 09:22:31;;;;;;;1.10;0.98;;;9.50;99.90;;;;;;4383337;32;20073;-76
2023/04/17 09:24:58;;;;;;;1.25;0.82;;;9.60;99.90;;;;;;4384459;32;20081;-75
2023/04/17 09:27:26;;;;;;;3.03;0.82;;;9.60;99.90;;;;;;4379446;32;20126;-75
2023/04/17 09:30:00;;;;;;;0.77;0.75;;;9.70;99.90;;;;;;4385827;32;20259;-77
2023/04/17 09:32:26;;;;;;;2.17;1.00;;;9.70;99.90;;;;;;4387368;32;20097;-75
2023/04/17 09:34:53;;;;;;;0.60;0.60;;;9.90;99.90;;;;;;4389291;32;20082;-74
2023/04/17 09:37:19;;;;;;;0.93;0.90;;;9.90;99.90;;;;;;4388374;32;20093;-76
2023/04/17 09:40:05;;;;;;;0.65;0.57;;;10.00;99.90;;;;;;4393496;32;21486;-74
2023/04/17 09:42:31;;;;;;;1.05;0.95;;;10.00;99.90;;;;;;4384058;32;20169;-74
2023/04/17 09:44:57;;;;;;;1.73;0.82;;;10.10;99.90;;;;;;4395792;32;20534;-73
2023/04/17 09:47:22;;;;;;;1.40;0.70;;;10.10;99.90;;;;;;4389516;32;20164;-75
2023/04/17 09:49:51;;;;;;;4.35;1.05;;;10.10;99.90;;;;;;4387873;32;20408;-75
2023/04/17 09:52:19;;;;;;;3.47;2.08;;;10.30;99.90;;;;;;4380697;32;20098;-74
2023/04/17 09:54:48;;;;;;;0.60;0.60;;;10.30;99.90;;;;;;4376473;32;20152;-75
2023/04/17 09:57:15;;;;;;;0.70;0.70;;;10.30;99.90;;;;;;4374389;32;20086;-74
2023/04/17 09:59:44;;;;;;;4.35;1.40;;;10.40;99.90;;;;;;4380854;32;20085;-74
2023/04/17 10:02:13;;;;;;;1.45;1.20;;;10.60;99.90;;;;;;4385403;32;20073;-75
2023/04/17 10:04:40;;;;;;;1.37;0.93;;;10.70;99.90;;;;;;4383222;32;20090;-74
2023/04/17 10:07:06;;;;;;;0.68;0.68;;;11.00;99.90;;;;;;4387243;32;20101;-75
2023/04/17 10:09:33;;;;;;;1.15;1.02;;;11.10;99.90;;;;;;4388576;32;20541;-76
2023/04/17 10:12:01;;;;;;;2.37;1.37;;;11.20;99.90;;;;;;4391514;32;20062;-75
2023/04/17 10:14:31;;;;;;;2.17;0.90;;;11.50;99.90;;;;;;4392154;32;20078;-75
2023/04/17 10:16:57;;;;;;;1.00;0.90;;;11.50;99.90;;;;;;4387945;32;20893;-75
2023/04/17 10:19:32;;;;;;;5.95;1.02;;;11.50;99.90;;;;;;4399810;32;20073;-75
2023/04/17 10:22:16;;;;;;;13.73;1.42;;;11.70;99.90;;;;;;4400828;32;20093;-76
2023/04/17 10:25:04;;;;;;;0.80;0.80;;;11.60;99.90;;;;;;4409717;32;20085;-75
2023/04/17 10:27:32;;;;;;;0.80;0.80;;;11.50;99.90;;;;;;4397600;32;20102;-75
2023/04/17 10:29:59;;;;;;;2.05;1.05;;;11.50;99.90;;;;;;4401285;32;20122;-76
2023/04/17 10:32:27;;;;;;;0.82;0.82;;;11.70;99.90;;;;;;4393465;32;20073;-76
2023/04/17 10:34:56;;;;;;;1.17;0.93;;;12.00;99.90;;;;;;4396341;32;20121;-77
2023/04/17 10:37:47;;;;;;;0.70;0.70;;;12.60;99.90;;;;;;4403107;32;20069;-76
2023/04/17 10:40:19;;;;;;;2.30;1.30;;;12.50;99.90;;;;;;4382181;32;20492;-76
2023/04/17 10:43:03;;;;;;;0.70;0.70;;;12.40;99.90;;;;;;4393543;32;20078;-76
2023/04/17 10:45:51;;;;;;;0.93;0.73;;;12.60;99.90;;;;;;4402784;32;20467;-76
2023/04/17 10:48:37;;;;;;;1.10;0.85;;;12.90;99.90;;;;;;4387122;32;20780;-76
2023/04/17 10:51:25;;;;;;;0.77;0.57;;;13.30;99.90;;;;;;4388956;32;20082;-75
2023/04/17 10:54:09;;;;;;;1.08;0.85;;;13.90;99.90;;;;;;4382312;32;20097;-77
2023/04/17 10:56:41;;;;;;;1.45;1.00;;;14.10;99.90;;;;;;4378502;32;20133;-76
2023/04/17 10:59:09;;;;;;;1.00;1.00;;;14.30;99.90;;;;;;4377490;32;21223;-76
2023/04/17 11:01:39;;;;;;;1.02;0.90;;;14.60;99.90;;;;;;4395624;32;20125;-76
2023/04/17 11:04:06;;;;;;;1.27;0.90;;;14.80;99.90;;;;;;4388818;32;20106;-77
2023/04/17 11:06:35;;;;;;;0.60;0.60;;;14.70;99.90;;;;;;4392362;32;20098;-76
2023/04/17 11:09:02;;;;;;;0.80;0.80;;;14.70;99.90;;;;;;4395755;32;20156;-76
2023/04/17 11:11:27;;;;;;;5.78;2.15;;;14.60;99.90;;;;;;4392661;32;20089;-75
2023/04/17 11:13:53;;;;;;;0.73;0.73;;;14.20;99.90;;;;;;4388863;32;20077;-78
2023/04/17 11:16:19;;;;;;;0.95;0.90;;;13.50;99.90;;;;;;4386047;32;20627;-76
2023/04/17 11:18:45;;;;;;;0.88;0.88;;;13.40;99.90;;;;;;4395757;32;20065;-77
2023/04/17 11:21:15;;;;;;;0.52;0.52;;;13.70;99.90;;;;;;4391102;32;20085;-77
2023/04/17 11:23:48;;;;;;;0.60;0.60;;;13.90;99.90;;;;;;4387383;32;20066;-79
2023/04/17 11:26:17;;;;;;;2.85;0.93;;;13.70;99.90;;;;;;4383720;32;20196;-73
2023/04/17 11:28:42;;;;;;;2.20;1.15;;;13.70;99.90;;;;;;4396473;32;20105;-76
2023/04/17 11:31:10;;;;;;;2.60;1.65;;;13.70;99.90;;;;;;4384284;32;20189;-77
2023/04/17 11:33:36;;;;;;;0.62;0.62;;;13.50;99.90;;;;;;4386665;32;20078;-78
2023/04/17 11:36:04;;;;;;;2.22;0.70;;;13.70;99.90;;;;;;4389802;32;20125;-79
2023/04/17 11:38:31;;;;;;;0.62;0.55;;;13.70;99.90;;;;;;4381999;32;20082;-77
2023/04/17 11:40:58;;;;;;;0.50;0.50;;;13.80;99.90;;;;;;4384150;32;20117;-77
2023/04/17 11:43:25;;;;;;;3.87;1.42;;;14.10;99.90;;;;;;4379827;32;91740;-79
2023/04/17 11:45:55;;;;;;;3.12;1.92;;;14.60;99.90;;;;;;4393456;32;20123;-78
2023/04/17 11:48:22;;;;;;;2.92;1.80;;;14.80;99.90;;;;;;4394073;32;20206;-78
2023/04/17 11:50:48;;;;;;;2.78;0.90;;;14.70;99.90;;;;;;4394105;32;20110;-77
2023/04/17 11:53:16;;;;;;;4.75;2.05;;;14.10;99.90;;;;;;4407935;32;20503;-77
2023/04/17 11:55:42;;;;;;;1.25;0.77;;;13.90;99.90;;;;;;4396310;32;20065;-77
2023/04/17 11:58:09;;;;;;;0.77;0.77;;;14.00;99.90;;;;;;4389556;32;21234;-77
2023/04/17 12:00:39;;;;;;;1.48;0.98;;;13.80;99.90;;;;;;4389363;32;20154;-79
2023/04/17 12:03:33;;;;;;;0.75;0.75;;;13.50;99.90;;;;;;4401678;32;20103;-78
2023/04/17 12:06:00;;;;;;;2.28;1.08;;;13.20;99.90;;;;;;4394724;32;20528;-77
2023/04/17 12:08:27;;;;;;;0.93;0.90;;;12.90;99.90;;;;;;4405023;32;20405;-79
2023/04/17 12:10:53;;;;;;;4.15;1.60;;;12.70;99.90;;;;;;4408793;32;20089;-77
2023/04/17 12:13:19;;;;;;;2.50;1.00;;;12.30;99.90;;;;;;4405477;32;20063;-76
2023/04/17 12:15:45;;;;;;;3.30;0.98;;;12.30;99.90;;;;;;4407995;32;20046;-78
2023/04/17 12:18:10;;;;;;;15.68;2.30;;;12.10;99.90;;;;;;4393276;32;20069;-76
2023/04/17 12:20:36;;;;;;;1.50;1.40;;;11.90;99.90;;;;;;4391446;32;20086;-77
2023/04/17 12:23:03;;;;;;;1.52;0.93;;;12.00;99.90;;;;;;4391439;32;20454;-76
2023/04/17 12:25:29;;;;;;;0.60;0.60;;;11.80;99.90;;;;;;4396801;32;20070;-77
2023/04/17 12:27:56;;;;;;;1.65;0.95;;;11.90;99.90;;;;;;4388226;32;20515;-78
2023/04/17 12:30:23;;;;;;;0.98;0.73;;;11.90;99.90;;;;;;4394131;32;20109;-76
2023/04/17 12:32:48;;;;;;;1.55;0.93;;;11.90;99.90;;;;;;4393416;32;20101;-79
2023/04/17 12:35:14;;;;;;;2.12;0.93;;;11.90;99.90;;;;;;4402648;32;20093;-77
2023/04/17 12:37:47;;;;;;;1.12;0.60;;;12.10;99.90;;;;;;4410763;32;20093;-77
2023/04/17 12:40:15;;;;;;;2.45;1.20;;;11.90;99.90;;;;;;4405462;32;20516;-76
2023/04/17 12:42:41;;;;;;;1.10;0.88;;;11.70;99.90;;;;;;4397827;32;20081;-77
2023/04/17 12:45:07;;;;;;;3.75;1.17;;;11.50;99.90;;;;;;4404385;32;20106;-77
2023/04/17 12:47:33;;;;;;;0.75;0.68;;;11.30;99.90;;;;;;4408699;32;20434;-78
2023/04/17 12:49:58;;;;;;;0.62;0.62;;;11.20;99.90;;;;;;4402899;32;20090;-76
2023/04/17 12:52:24;;;;;;;0.70;0.70;;;11.20;99.90;;;;;;4407846;32;20091;-77
2023/04/17 12:54:50;;;;;;;2.45;1.15;;;11.20;99.90;;;;;;4407634;32;20836;-77